sensor_id;sensor_type;location;lat;lon;timestamp;P1;durP1;ratioP1;P2;durP2;ratioP2
64110;SDS011;50401;48.188;11.566;2023-02-28T00:02:19;6.60;;;3.53;;
64110;SDS011;50401;48.188;11.566;2023-02-28T00:04:45;8.52;;;3.47;;
64110;SDS011;50401;48.188;11.566;2023-02-28T00:07:18;7.10;;;3.20;;
64110;SDS011;50401;48.188;11.566;2023-02-28T00:09:44;6.30;;;3.38;;
64110;SDS011;50401;48.188;11.566;2023-02-28T00:12:10;6.30;;;3.05;;
64110;SDS011;50401;48.188;11.566;2023-02-28T00:14:38;5.30;;;2.92;;
64110;SDS011;50401;48.188;11.566;2023-02-28T00:17:03;6.47;;;3.45;;
64110;SDS011;50401;48.188;11.566;2023-02-28T00:19:28;7.78;;;3.67;;
64110;SDS011;50401;48.188;11.566;2023-02-28T00:21:54;3.30;;;2.30;;
64110;SDS011;50401;48.188;11.566;2023-02-28T00:24:19;8.07;;;3.15;;
64110;SDS011;50401;48.188;11.566;2023-02-28T00:26:44;7.85;;;3.25;;
64110;SDS011;50401;48.188;11.566;2023-02-28T00:29:10;6.47;;;3.42;;
64110;SDS011;50401;48.188;11.566;2023-02-28T00:31:35;5.38;;;3.22;;
64110;SDS011;50401;48.188;11.566;2023-02-28T00:34:00;4.97;;;2.88;;
64110;SDS011;50401;48.188;11.566;2023-02-28T00:36:26;6.15;;;3.42;;
64110;SDS011;50401;48.188;11.566;2023-02-28T00:38:51;9.88;;;3.85;;
64110;SDS011;50401;48.188;11.566;2023-02-28T00:41:17;8.05;;;3.72;;
64110;SDS011;50401;48.188;11.566;2023-02-28T00:43:42;5.53;;;3.10;;
64110;SDS011;50401;48.188;11.566;2023-02-28T00:46:08;5.55;;;3.40;;
64110;SDS011;50401;48.188;11.566;2023-02-28T00:48:33;10.68;;;3.88;;
64110;SDS011;50401;48.188;11.566;2023-02-28T00:50:59;10.65;;;3.47;;
64110;SDS011;50401;48.188;11.566;2023-02-28T00:53:24;8.90;;;3.50;;
64110;SDS011;50401;48.188;11.566;2023-02-28T00:55:50;5.28;;;3.15;;
64110;SDS011;50401;48.188;11.566;2023-02-28T00:58:15;6.20;;;3.75;;
64110;SDS011;50401;48.188;11.566;2023-02-28T01:00:41;8.77;;;3.90;;
64110;SDS011;50401;48.188;11.566;2023-02-28T01:03:06;6.50;;;3.55;;
64110;SDS011;50401;48.188;11.566;2023-02-28T01:05:31;6.35;;;3.90;;
64110;SDS011;50401;48.188;11.566;2023-02-28T01:07:57;5.82;;;3.65;;
64110;SDS011;50401;48.188;11.566;2023-02-28T01:10:22;4.97;;;3.47;;
64110;SDS011;50401;48.188;11.566;2023-02-28T01:12:47;10.30;;;2.80;;
64110;SDS011;50401;48.188;11.566;2023-02-28T01:15:13;7.00;;;3.22;;
64110;SDS011;50401;48.188;11.566;2023-02-28T01:17:38;7.10;;;4.28;;
64110;SDS011;50401;48.188;11.566;2023-02-28T01:20:04;7.30;;;3.53;;
64110;SDS011;50401;48.188;11.566;2023-02-28T01:22:30;6.20;;;3.40;;
64110;SDS011;50401;48.188;11.566;2023-02-28T01:24:55;6.82;;;3.72;;
64110;SDS011;50401;48.188;11.566;2023-02-28T01:27:20;7.55;;;4.05;;
64110;SDS011;50401;48.188;11.566;2023-02-28T01:29:46;7.90;;;3.45;;
64110;SDS011;50401;48.188;11.566;2023-02-28T01:32:11;5.55;;;3.25;;
64110;SDS011;50401;48.188;11.566;2023-02-28T01:34:37;7.40;;;4.15;;
64110;SDS011;50401;48.188;11.566;2023-02-28T01:37:02;5.45;;;3.42;;
64110;SDS011;50401;48.188;11.566;2023-02-28T01:39:28;6.60;;;3.55;;
64110;SDS011;50401;48.188;11.566;2023-02-28T01:41:54;6.20;;;3.58;;
64110;SDS011;50401;48.188;11.566;2023-02-28T01:47:19;7.35;;;4.43;;
64110;SDS011;50401;48.188;11.566;2023-02-28T01:49:45;7.45;;;4.07;;
64110;SDS011;50401;48.188;11.566;2023-02-28T01:52:11;7.00;;;4.00;;
64110;SDS011;50401;48.188;11.566;2023-02-28T01:54:42;5.63;;;3.50;;
64110;SDS011;50401;48.188;11.566;2023-02-28T01:57:11;5.05;;;3.80;;
64110;SDS011;50401;48.188;11.566;2023-02-28T01:59:42;8.10;;;4.18;;
64110;SDS011;50401;48.188;11.566;2023-02-28T02:02:20;7.73;;;4.23;;
64110;SDS011;50401;48.188;11.566;2023-02-28T02:07:32;8.43;;;4.15;;
64110;SDS011;50401;48.188;11.566;2023-02-28T02:10:10;7.85;;;3.70;;
64110;SDS011;50401;48.188;11.566;2023-02-28T02:18:21;5.05;;;3.50;;
64110;SDS011;50401;48.188;11.566;2023-02-28T02:26:47;10.38;;;3.97;;
64110;SDS011;50401;48.188;11.566;2023-02-28T02:33:03;8.27;;;3.60;;
64110;SDS011;50401;48.188;11.566;2023-02-28T02:41:36;5.75;;;3.65;;
64110;SDS011;50401;48.188;11.566;2023-02-28T02:44:20;6.63;;;3.88;;
64110;SDS011;50401;48.188;11.566;2023-02-28T02:46:47;5.70;;;3.40;;
64110;SDS011;50401;48.188;11.566;2023-02-28T02:49:25;7.57;;;3.80;;
64110;SDS011;50401;48.188;11.566;2023-02-28T02:51:55;5.80;;;3.58;;
64110;SDS011;50401;48.188;11.566;2023-02-28T02:54:24;7.03;;;3.38;;
64110;SDS011;50401;48.188;11.566;2023-02-28T02:56:54;6.15;;;3.75;;
64110;SDS011;50401;48.188;11.566;2023-02-28T03:01:53;5.40;;;3.67;;
64110;SDS011;50401;48.188;11.566;2023-02-28T03:04:25;8.32;;;3.80;;
64110;SDS011;50401;48.188;11.566;2023-02-28T03:06:55;5.65;;;3.60;;
64110;SDS011;50401;48.188;11.566;2023-02-28T03:09:24;6.50;;;4.32;;
64110;SDS011;50401;48.188;11.566;2023-02-28T03:11:51;6.80;;;3.90;;
64110;SDS011;50401;48.188;11.566;2023-02-28T03:14:28;7.50;;;3.05;;
64110;SDS011;50401;48.188;11.566;2023-02-28T03:25:08;9.27;;;3.97;;
64110;SDS011;50401;48.188;11.566;2023-02-28T03:30:29;9.20;;;4.88;;
64110;SDS011;50401;48.188;11.566;2023-02-28T03:33:16;7.70;;;4.50;;
64110;SDS011;50401;48.188;11.566;2023-02-28T03:35:55;8.18;;;4.25;;
64110;SDS011;50401;48.188;11.566;2023-02-28T03:41:22;9.10;;;4.70;;
64110;SDS011;50401;48.188;11.566;2023-02-28T03:43:53;10.80;;;5.10;;
64110;SDS011;50401;48.188;11.566;2023-02-28T03:46:22;11.57;;;5.10;;
64110;SDS011;50401;48.188;11.566;2023-02-28T03:48:53;8.75;;;4.22;;
64110;SDS011;50401;48.188;11.566;2023-02-28T03:51:27;10.40;;;5.07;;
64110;SDS011;50401;48.188;11.566;2023-02-28T03:53:54;8.38;;;4.85;;
64110;SDS011;50401;48.188;11.566;2023-02-28T03:56:29;8.73;;;4.72;;
64110;SDS011;50401;48.188;11.566;2023-02-28T03:59:16;14.00;;;4.68;;
64110;SDS011;50401;48.188;11.566;2023-02-28T04:01:50;10.52;;;4.18;;
64110;SDS011;50401;48.188;11.566;2023-02-28T04:04:16;9.68;;;5.28;;
64110;SDS011;50401;48.188;11.566;2023-02-28T04:06:42;7.30;;;4.18;;
64110;SDS011;50401;48.188;11.566;2023-02-28T04:09:10;8.85;;;5.35;;
64110;SDS011;50401;48.188;11.566;2023-02-28T04:14:06;7.43;;;4.93;;
64110;SDS011;50401;48.188;11.566;2023-02-28T04:16:33;10.95;;;5.95;;
64110;SDS011;50401;48.188;11.566;2023-02-28T04:19:00;8.50;;;4.75;;
64110;SDS011;50401;48.188;11.566;2023-02-28T04:21:30;10.93;;;5.13;;
64110;SDS011;50401;48.188;11.566;2023-02-28T04:23:57;10.95;;;5.57;;
64110;SDS011;50401;48.188;11.566;2023-02-28T04:26:27;13.50;;;5.65;;
64110;SDS011;50401;48.188;11.566;2023-02-28T04:28:57;10.50;;;5.20;;
64110;SDS011;50401;48.188;11.566;2023-02-28T04:31:23;11.02;;;5.43;;
64110;SDS011;50401;48.188;11.566;2023-02-28T04:33:49;14.38;;;6.15;;
64110;SDS011;50401;48.188;11.566;2023-02-28T04:36:14;11.88;;;6.10;;
64110;SDS011;50401;48.188;11.566;2023-02-28T04:38:42;10.18;;;6.03;;
64110;SDS011;50401;48.188;11.566;2023-02-28T04:41:08;10.27;;;5.55;;
64110;SDS011;50401;48.188;11.566;2023-02-28T04:43:34;10.05;;;5.85;;
64110;SDS011;50401;48.188;11.566;2023-02-28T04:46:00;18.45;;;6.50;;
64110;SDS011;50401;48.188;11.566;2023-02-28T04:48:28;12.45;;;5.28;;
64110;SDS011;50401;48.188;11.566;2023-02-28T04:50:54;9.93;;;5.82;;
64110;SDS011;50401;48.188;11.566;2023-02-28T04:53:19;11.52;;;6.30;;
64110;SDS011;50401;48.188;11.566;2023-02-28T04:55:45;10.48;;;6.40;;
64110;SDS011;50401;48.188;11.566;2023-02-28T04:58:12;15.85;;;6.25;;
64110;SDS011;50401;48.188;11.566;2023-02-28T05:00:38;12.43;;;5.63;;
64110;SDS011;50401;48.188;11.566;2023-02-28T05:03:04;14.63;;;6.63;;
64110;SDS011;50401;48.188;11.566;2023-02-28T05:05:29;10.00;;;5.57;;
64110;SDS011;50401;48.188;11.566;2023-02-28T05:07:54;9.20;;;6.13;;
64110;SDS011;50401;48.188;11.566;2023-02-28T05:10:20;12.05;;;6.13;;
64110;SDS011;50401;48.188;11.566;2023-02-28T05:12:46;17.80;;;7.13;;
64110;SDS011;50401;48.188;11.566;2023-02-28T05:15:13;11.38;;;6.25;;
64110;SDS011;50401;48.188;11.566;2023-02-28T05:17:39;9.10;;;5.78;;
64110;SDS011;50401;48.188;11.566;2023-02-28T05:20:05;15.57;;;7.13;;
64110;SDS011;50401;48.188;11.566;2023-02-28T05:22:31;13.43;;;7.18;;
64110;SDS011;50401;48.188;11.566;2023-02-28T05:24:56;13.73;;;6.72;;
64110;SDS011;50401;48.188;11.566;2023-02-28T05:27:22;14.07;;;7.38;;
64110;SDS011;50401;48.188;11.566;2023-02-28T05:29:48;13.10;;;6.53;;
64110;SDS011;50401;48.188;11.566;2023-02-28T05:32:14;10.73;;;5.75;;
64110;SDS011;50401;48.188;11.566;2023-02-28T05:34:40;14.25;;;7.22;;
64110;SDS011;50401;48.188;11.566;2023-02-28T05:37:07;15.75;;;7.57;;
64110;SDS011;50401;48.188;11.566;2023-02-28T05:39:37;20.65;;;8.10;;
64110;SDS011;50401;48.188;11.566;2023-02-28T05:42:02;15.80;;;7.97;;
64110;SDS011;50401;48.188;11.566;2023-02-28T05:44:28;15.05;;;7.75;;
64110;SDS011;50401;48.188;11.566;2023-02-28T05:46:53;19.77;;;8.10;;
64110;SDS011;50401;48.188;11.566;2023-02-28T05:49:19;17.63;;;7.45;;
64110;SDS011;50401;48.188;11.566;2023-02-28T05:51:44;57.30;;;9.82;;
64110;SDS011;50401;48.188;11.566;2023-02-28T05:54:10;13.68;;;7.30;;
64110;SDS011;50401;48.188;11.566;2023-02-28T05:56:35;10.15;;;6.65;;
64110;SDS011;50401;48.188;11.566;2023-02-28T05:59:02;10.20;;;5.80;;
64110;SDS011;50401;48.188;11.566;2023-02-28T06:04:07;17.55;;;8.07;;
64110;SDS011;50401;48.188;11.566;2023-02-28T06:06:34;16.17;;;8.32;;
64110;SDS011;50401;48.188;11.566;2023-02-28T06:09:00;16.67;;;7.25;;
64110;SDS011;50401;48.188;11.566;2023-02-28T06:11:26;20.08;;;9.30;;
64110;SDS011;50401;48.188;11.566;2023-02-28T06:13:56;21.35;;;8.18;;
64110;SDS011;50401;48.188;11.566;2023-02-28T06:16:22;20.33;;;9.23;;
64110;SDS011;50401;48.188;11.566;2023-02-28T06:18:48;17.27;;;8.88;;
64110;SDS011;50401;48.188;11.566;2023-02-28T06:21:14;19.42;;;10.13;;
64110;SDS011;50401;48.188;11.566;2023-02-28T06:23:39;15.73;;;7.38;;
64110;SDS011;50401;48.188;11.566;2023-02-28T06:26:05;27.60;;;9.73;;
64110;SDS011;50401;48.188;11.566;2023-02-28T06:28:31;22.55;;;10.55;;
64110;SDS011;50401;48.188;11.566;2023-02-28T06:30:56;17.45;;;8.35;;
64110;SDS011;50401;48.188;11.566;2023-02-28T06:33:22;22.40;;;8.18;;
64110;SDS011;50401;48.188;11.566;2023-02-28T06:35:49;19.88;;;9.77;;
64110;SDS011;50401;48.188;11.566;2023-02-28T06:38:16;16.45;;;7.47;;
64110;SDS011;50401;48.188;11.566;2023-02-28T06:40:41;27.45;;;10.82;;
64110;SDS011;50401;48.188;11.566;2023-02-28T06:43:06;24.25;;;11.43;;
64110;SDS011;50401;48.188;11.566;2023-02-28T06:45:32;18.33;;;9.05;;
64110;SDS011;50401;48.188;11.566;2023-02-28T06:47:57;25.23;;;8.50;;
64110;SDS011;50401;48.188;11.566;2023-02-28T06:50:25;18.02;;;9.35;;
64110;SDS011;50401;48.188;11.566;2023-02-28T06:52:50;21.77;;;10.60;;
64110;SDS011;50401;48.188;11.566;2023-02-28T06:55:18;18.48;;;10.05;;
64110;SDS011;50401;48.188;11.566;2023-02-28T06:57:44;23.08;;;8.93;;
64110;SDS011;50401;48.188;11.566;2023-02-28T07:00:09;24.63;;;9.98;;
64110;SDS011;50401;48.188;11.566;2023-02-28T07:02:36;20.17;;;9.85;;
64110;SDS011;50401;48.188;11.566;2023-02-28T07:05:02;24.52;;;13.23;;
64110;SDS011;50401;48.188;11.566;2023-02-28T07:07:29;20.48;;;10.07;;
64110;SDS011;50401;48.188;11.566;2023-02-28T07:09:54;20.58;;;9.77;;
64110;SDS011;50401;48.188;11.566;2023-02-28T07:12:19;24.77;;;12.05;;
64110;SDS011;50401;48.188;11.566;2023-02-28T07:14:46;19.95;;;10.32;;
64110;SDS011;50401;48.188;11.566;2023-02-28T07:17:11;11.60;;;7.57;;
64110;SDS011;50401;48.188;11.566;2023-02-28T07:19:37;18.92;;;10.82;;
64110;SDS011;50401;48.188;11.566;2023-02-28T07:22:03;27.80;;;10.25;;
64110;SDS011;50401;48.188;11.566;2023-02-28T07:24:29;24.98;;;11.75;;
64110;SDS011;50401;48.188;11.566;2023-02-28T07:26:55;21.27;;;12.02;;
64110;SDS011;50401;48.188;11.566;2023-02-28T07:29:20;18.73;;;11.13;;
64110;SDS011;50401;48.188;11.566;2023-02-28T07:31:46;25.20;;;11.23;;
64110;SDS011;50401;48.188;11.566;2023-02-28T07:34:11;23.40;;;13.40;;
64110;SDS011;50401;48.188;11.566;2023-02-28T07:36:38;23.85;;;11.85;;
64110;SDS011;50401;48.188;11.566;2023-02-28T07:39:03;25.73;;;12.60;;
64110;SDS011;50401;48.188;11.566;2023-02-28T07:41:29;23.38;;;11.55;;
64110;SDS011;50401;48.188;11.566;2023-02-28T07:43:58;27.65;;;12.50;;
64110;SDS011;50401;48.188;11.566;2023-02-28T07:46:24;30.30;;;13.55;;
64110;SDS011;50401;48.188;11.566;2023-02-28T07:48:50;21.90;;;11.85;;
64110;SDS011;50401;48.188;11.566;2023-02-28T07:51:16;24.30;;;12.55;;
64110;SDS011;50401;48.188;11.566;2023-02-28T07:53:42;19.45;;;10.60;;
64110;SDS011;50401;48.188;11.566;2023-02-28T07:56:07;25.48;;;12.02;;
64110;SDS011;50401;48.188;11.566;2023-02-28T07:58:33;26.42;;;11.43;;
64110;SDS011;50401;48.188;11.566;2023-02-28T08:01:08;27.33;;;11.93;;
64110;SDS011;50401;48.188;11.566;2023-02-28T08:03:35;24.83;;;12.57;;
64110;SDS011;50401;48.188;11.566;2023-02-28T08:06:02;24.52;;;12.35;;
64110;SDS011;50401;48.188;11.566;2023-02-28T08:08:32;25.70;;;12.07;;
64110;SDS011;50401;48.188;11.566;2023-02-28T08:10:59;21.83;;;12.32;;
64110;SDS011;50401;48.188;11.566;2023-02-28T08:15:54;19.38;;;10.27;;
64110;SDS011;50401;48.188;11.566;2023-02-28T08:18:20;20.25;;;12.55;;
64110;SDS011;50401;48.188;11.566;2023-02-28T08:20:46;22.85;;;12.50;;
64110;SDS011;50401;48.188;11.566;2023-02-28T08:23:11;30.77;;;16.55;;
64110;SDS011;50401;48.188;11.566;2023-02-28T08:25:37;27.85;;;12.35;;
64110;SDS011;50401;48.188;11.566;2023-02-28T08:28:02;25.65;;;12.75;;
64110;SDS011;50401;48.188;11.566;2023-02-28T08:30:28;19.92;;;10.93;;
64110;SDS011;50401;48.188;11.566;2023-02-28T08:32:53;22.13;;;11.35;;
64110;SDS011;50401;48.188;11.566;2023-02-28T08:35:20;27.30;;;14.13;;
64110;SDS011;50401;48.188;11.566;2023-02-28T08:37:49;26.10;;;13.23;;
64110;SDS011;50401;48.188;11.566;2023-02-28T08:40:15;40.38;;;12.43;;
64110;SDS011;50401;48.188;11.566;2023-02-28T08:42:46;31.97;;;13.53;;
64110;SDS011;50401;48.188;11.566;2023-02-28T08:45:12;26.73;;;12.93;;
64110;SDS011;50401;48.188;11.566;2023-02-28T08:47:40;31.15;;;13.88;;
64110;SDS011;50401;48.188;11.566;2023-02-28T08:50:06;24.08;;;13.80;;
64110;SDS011;50401;48.188;11.566;2023-02-28T08:52:32;20.77;;;10.23;;
64110;SDS011;50401;48.188;11.566;2023-02-28T08:54:58;27.38;;;12.90;;
64110;SDS011;50401;48.188;11.566;2023-02-28T08:57:23;18.60;;;11.18;;
64110;SDS011;50401;48.188;11.566;2023-02-28T08:59:51;24.42;;;13.18;;
64110;SDS011;50401;48.188;11.566;2023-02-28T09:02:16;30.83;;;14.10;;
64110;SDS011;50401;48.188;11.566;2023-02-28T09:04:42;29.75;;;12.55;;
64110;SDS011;50401;48.188;11.566;2023-02-28T09:07:10;27.95;;;13.77;;
64110;SDS011;50401;48.188;11.566;2023-02-28T09:09:36;25.45;;;13.90;;
64110;SDS011;50401;48.188;11.566;2023-02-28T09:12:01;32.90;;;16.70;;
64110;SDS011;50401;48.188;11.566;2023-02-28T09:14:27;31.60;;;15.57;;
64110;SDS011;50401;48.188;11.566;2023-02-28T09:16:53;28.02;;;15.15;;
64110;SDS011;50401;48.188;11.566;2023-02-28T09:19:19;39.97;;;13.63;;
64110;SDS011;50401;48.188;11.566;2023-02-28T09:21:44;23.15;;;11.65;;
64110;SDS011;50401;48.188;11.566;2023-02-28T09:24:10;26.88;;;10.95;;
64110;SDS011;50401;48.188;11.566;2023-02-28T09:26:38;22.85;;;12.30;;
64110;SDS011;50401;48.188;11.566;2023-02-28T09:29:03;27.45;;;14.63;;
64110;SDS011;50401;48.188;11.566;2023-02-28T09:31:29;37.70;;;11.98;;
64110;SDS011;50401;48.188;11.566;2023-02-28T09:33:55;27.42;;;13.07;;
64110;SDS011;50401;48.188;11.566;2023-02-28T09:36:22;32.15;;;15.93;;
64110;SDS011;50401;48.188;11.566;2023-02-28T09:38:49;25.60;;;12.82;;
64110;SDS011;50401;48.188;11.566;2023-02-28T09:41:20;24.35;;;12.45;;
64110;SDS011;50401;48.188;11.566;2023-02-28T09:43:57;28.63;;;13.73;;
64110;SDS011;50401;48.188;11.566;2023-02-28T09:49:05;37.80;;;13.13;;
64110;SDS011;50401;48.188;11.566;2023-02-28T09:54:28;38.60;;;14.23;;
64110;SDS011;50401;48.188;11.566;2023-02-28T10:07:21;32.03;;;14.32;;
64110;SDS011;50401;48.188;11.566;2023-02-28T10:10:10;23.93;;;13.33;;
64110;SDS011;50401;48.188;11.566;2023-02-28T10:12:53;27.13;;;12.82;;
64110;SDS011;50401;48.188;11.566;2023-02-28T10:15:22;29.30;;;13.00;;
64110;SDS011;50401;48.188;11.566;2023-02-28T10:17:52;23.77;;;13.13;;
64110;SDS011;50401;48.188;11.566;2023-02-28T10:20:22;24.90;;;12.88;;
64110;SDS011;50401;48.188;11.566;2023-02-28T10:25:41;24.33;;;13.13;;
64110;SDS011;50401;48.188;11.566;2023-02-28T10:28:14;25.90;;;15.05;;
64110;SDS011;50401;48.188;11.566;2023-02-28T10:30:42;27.88;;;13.20;;
64110;SDS011;50401;48.188;11.566;2023-02-28T10:33:15;25.55;;;13.10;;
64110;SDS011;50401;48.188;11.566;2023-02-28T10:35:54;47.78;;;14.35;;
64110;SDS011;50401;48.188;11.566;2023-02-28T10:38:22;27.02;;;13.05;;
64110;SDS011;50401;48.188;11.566;2023-02-28T10:41:05;22.35;;;12.40;;
64110;SDS011;50401;48.188;11.566;2023-02-28T10:43:32;29.85;;;14.88;;
64110;SDS011;50401;48.188;11.566;2023-02-28T10:48:31;21.17;;;12.05;;
64110;SDS011;50401;48.188;11.566;2023-02-28T10:51:01;26.42;;;12.60;;
64110;SDS011;50401;48.188;11.566;2023-02-28T10:53:48;28.55;;;13.05;;
64110;SDS011;50401;48.188;11.566;2023-02-28T10:56:16;28.52;;;13.57;;
64110;SDS011;50401;48.188;11.566;2023-02-28T10:58:54;19.88;;;11.02;;
64110;SDS011;50401;48.188;11.566;2023-02-28T11:03:56;27.15;;;12.65;;
64110;SDS011;50401;48.188;11.566;2023-02-28T11:06:24;28.77;;;13.52;;
64110;SDS011;50401;48.188;11.566;2023-02-28T11:08:53;30.63;;;13.65;;
64110;SDS011;50401;48.188;11.566;2023-02-28T11:11:24;26.05;;;11.82;;
64110;SDS011;50401;48.188;11.566;2023-02-28T11:14:17;28.10;;;13.47;;
64110;SDS011;50401;48.188;11.566;2023-02-28T11:16:44;26.40;;;13.00;;
64110;SDS011;50401;48.188;11.566;2023-02-28T11:19:15;25.25;;;13.50;;
64110;SDS011;50401;48.188;11.566;2023-02-28T11:21:48;24.17;;;13.48;;
64110;SDS011;50401;48.188;11.566;2023-02-28T11:24:22;24.15;;;13.38;;
64110;SDS011;50401;48.188;11.566;2023-02-28T11:26:52;20.75;;;12.02;;
64110;SDS011;50401;48.188;11.566;2023-02-28T11:29:23;30.15;;;13.05;;
64110;SDS011;50401;48.188;11.566;2023-02-28T11:32:04;26.83;;;14.55;;
64110;SDS011;50401;48.188;11.566;2023-02-28T11:34:33;25.27;;;13.65;;
64110;SDS011;50401;48.188;11.566;2023-02-28T11:37:00;36.33;;;14.98;;
64110;SDS011;50401;48.188;11.566;2023-02-28T11:39:29;22.23;;;13.10;;
64110;SDS011;50401;48.188;11.566;2023-02-28T11:44:58;30.02;;;14.85;;
64110;SDS011;50401;48.188;11.566;2023-02-28T11:55:42;26.67;;;12.50;;
64110;SDS011;50401;48.188;11.566;2023-02-28T11:58:32;26.48;;;13.30;;
64110;SDS011;50401;48.188;11.566;2023-02-28T12:06:18;23.20;;;12.73;;
64110;SDS011;50401;48.188;11.566;2023-02-28T12:14:57;27.42;;;11.88;;
64110;SDS011;50401;48.188;11.566;2023-02-28T12:17:59;26.52;;;12.18;;
64110;SDS011;50401;48.188;11.566;2023-02-28T12:26:16;21.90;;;12.10;;
64110;SDS011;50401;48.188;11.566;2023-02-28T12:28:57;20.23;;;9.57;;
64110;SDS011;50401;48.188;11.566;2023-02-28T12:34:17;24.30;;;9.63;;
64110;SDS011;50401;48.188;11.566;2023-02-28T12:36:46;17.95;;;9.93;;
64110;SDS011;50401;48.188;11.566;2023-02-28T12:39:26;32.65;;;12.88;;
64110;SDS011;50401;48.188;11.566;2023-02-28T12:41:59;24.67;;;12.98;;
64110;SDS011;50401;48.188;11.566;2023-02-28T12:44:35;28.23;;;13.00;;
64110;SDS011;50401;48.188;11.566;2023-02-28T12:47:13;23.15;;;11.85;;
64110;SDS011;50401;48.188;11.566;2023-02-28T12:50:14;27.13;;;12.68;;
64110;SDS011;50401;48.188;11.566;2023-02-28T12:52:52;28.38;;;12.05;;
64110;SDS011;50401;48.188;11.566;2023-02-28T13:03:41;24.90;;;12.30;;
64110;SDS011;50401;48.188;11.566;2023-02-28T13:09:10;30.92;;;15.50;;
64110;SDS011;50401;48.188;11.566;2023-02-28T13:14:06;34.85;;;12.98;;
64110;SDS011;50401;48.188;11.566;2023-02-28T13:16:47;29.53;;;15.10;;
64110;SDS011;50401;48.188;11.566;2023-02-28T13:19:37;26.70;;;13.68;;
64110;SDS011;50401;48.188;11.566;2023-02-28T13:22:04;22.85;;;12.90;;
64110;SDS011;50401;48.188;11.566;2023-02-28T13:24:43;26.20;;;11.85;;
64110;SDS011;50401;48.188;11.566;2023-02-28T13:29:36;28.55;;;12.75;;
64110;SDS011;50401;48.188;11.566;2023-02-28T13:39:53;25.15;;;13.30;;
64110;SDS011;50401;48.188;11.566;2023-02-28T13:42:30;27.40;;;12.45;;
64110;SDS011;50401;48.188;11.566;2023-02-28T13:52:57;31.23;;;12.32;;
64110;SDS011;50401;48.188;11.566;2023-02-28T14:01:03;32.05;;;12.07;;
64110;SDS011;50401;48.188;11.566;2023-02-28T14:03:53;21.92;;;10.80;;
64110;SDS011;50401;48.188;11.566;2023-02-28T14:06:46;29.48;;;12.05;;
64110;SDS011;50401;48.188;11.566;2023-02-28T14:09:21;34.72;;;13.30;;
64110;SDS011;50401;48.188;11.566;2023-02-28T14:11:50;23.02;;;11.82;;
64110;SDS011;50401;48.188;11.566;2023-02-28T14:17:00;27.30;;;13.02;;
64110;SDS011;50401;48.188;11.566;2023-02-28T14:19:29;28.73;;;12.75;;
64110;SDS011;50401;48.188;11.566;2023-02-28T14:24:54;21.70;;;12.52;;
64110;SDS011;50401;48.188;11.566;2023-02-28T14:27:38;21.48;;;9.48;;
64110;SDS011;50401;48.188;11.566;2023-02-28T14:33:15;25.83;;;12.18;;
64110;SDS011;50401;48.188;11.566;2023-02-28T14:36:17;24.63;;;12.68;;
64110;SDS011;50401;48.188;11.566;2023-02-28T14:38:47;26.63;;;13.10;;
64110;SDS011;50401;48.188;11.566;2023-02-28T14:41:21;25.95;;;11.10;;
64110;SDS011;50401;48.188;11.566;2023-02-28T14:43:53;26.08;;;13.30;;
64110;SDS011;50401;48.188;11.566;2023-02-28T14:46:23;20.38;;;10.93;;
64110;SDS011;50401;48.188;11.566;2023-02-28T14:51:18;27.20;;;12.45;;
64110;SDS011;50401;48.188;11.566;2023-02-28T14:53:52;24.20;;;11.48;;
64110;SDS011;50401;48.188;11.566;2023-02-28T14:56:34;34.92;;;14.82;;
64110;SDS011;50401;48.188;11.566;2023-02-28T14:59:01;24.13;;;12.52;;
64110;SDS011;50401;48.188;11.566;2023-02-28T15:01:28;23.55;;;12.75;;
64110;SDS011;50401;48.188;11.566;2023-02-28T15:04:27;28.60;;;12.52;;
64110;SDS011;50401;48.188;11.566;2023-02-28T15:09:38;21.48;;;12.23;;
64110;SDS011;50401;48.188;11.566;2023-02-28T15:12:04;20.48;;;9.95;;
64110;SDS011;50401;48.188;11.566;2023-02-28T15:14:30;26.48;;;11.80;;
64110;SDS011;50401;48.188;11.566;2023-02-28T15:17:01;28.10;;;14.57;;
64110;SDS011;50401;48.188;11.566;2023-02-28T15:19:34;24.65;;;12.45;;
64110;SDS011;50401;48.188;11.566;2023-02-28T15:22:04;32.65;;;14.10;;
64110;SDS011;50401;48.188;11.566;2023-02-28T15:24:46;27.20;;;14.25;;
64110;SDS011;50401;48.188;11.566;2023-02-28T15:27:20;23.58;;;13.35;;
64110;SDS011;50401;48.188;11.566;2023-02-28T15:29:50;27.52;;;14.02;;
64110;SDS011;50401;48.188;11.566;2023-02-28T15:32:35;25.70;;;12.43;;
64110;SDS011;50401;48.188;11.566;2023-02-28T15:35:26;33.03;;;13.05;;
64110;SDS011;50401;48.188;11.566;2023-02-28T15:38:00;25.42;;;11.30;;
64110;SDS011;50401;48.188;11.566;2023-02-28T15:40:28;32.38;;;13.07;;
64110;SDS011;50401;48.188;11.566;2023-02-28T15:45:33;27.63;;;13.63;;
64110;SDS011;50401;48.188;11.566;2023-02-28T15:51:20;27.65;;;13.40;;
64110;SDS011;50401;48.188;11.566;2023-02-28T15:53:59;23.50;;;10.45;;
64110;SDS011;50401;48.188;11.566;2023-02-28T15:59:03;23.98;;;12.55;;
64110;SDS011;50401;48.188;11.566;2023-02-28T16:01:34;23.25;;;12.85;;
64110;SDS011;50401;48.188;11.566;2023-02-28T16:04:14;34.17;;;14.10;;
64110;SDS011;50401;48.188;11.566;2023-02-28T16:06:45;34.35;;;15.13;;
64110;SDS011;50401;48.188;11.566;2023-02-28T16:09:25;28.15;;;13.55;;
64110;SDS011;50401;48.188;11.566;2023-02-28T16:11:54;27.50;;;14.10;;
64110;SDS011;50401;48.188;11.566;2023-02-28T16:14:23;24.10;;;12.82;;
64110;SDS011;50401;48.188;11.566;2023-02-28T16:16:53;26.60;;;14.43;;
64110;SDS011;50401;48.188;11.566;2023-02-28T16:19:20;34.17;;;15.35;;
64110;SDS011;50401;48.188;11.566;2023-02-28T16:21:47;24.23;;;12.38;;
64110;SDS011;50401;48.188;11.566;2023-02-28T16:24:13;29.27;;;13.15;;
64110;SDS011;50401;48.188;11.566;2023-02-28T16:26:40;26.77;;;12.75;;
64110;SDS011;50401;48.188;11.566;2023-02-28T16:29:07;22.67;;;9.52;;
64110;SDS011;50401;48.188;11.566;2023-02-28T16:31:35;32.88;;;14.00;;
64110;SDS011;50401;48.188;11.566;2023-02-28T16:34:02;31.25;;;14.73;;
64110;SDS011;50401;48.188;11.566;2023-02-28T16:36:28;36.05;;;14.52;;
64110;SDS011;50401;48.188;11.566;2023-02-28T16:38:54;26.30;;;13.73;;
64110;SDS011;50401;48.188;11.566;2023-02-28T16:41:29;25.92;;;12.77;;
64110;SDS011;50401;48.188;11.566;2023-02-28T16:43:55;25.25;;;13.70;;
64110;SDS011;50401;48.188;11.566;2023-02-28T16:46:27;35.10;;;14.02;;
64110;SDS011;50401;48.188;11.566;2023-02-28T16:48:55;26.98;;;13.18;;
64110;SDS011;50401;48.188;11.566;2023-02-28T16:51:21;27.27;;;13.48;;
64110;SDS011;50401;48.188;11.566;2023-02-28T16:53:47;29.02;;;13.30;;
64110;SDS011;50401;48.188;11.566;2023-02-28T16:56:14;33.13;;;14.77;;
64110;SDS011;50401;48.188;11.566;2023-02-28T16:58:42;24.67;;;14.02;;
64110;SDS011;50401;48.188;11.566;2023-02-28T17:03:37;29.13;;;13.00;;
64110;SDS011;50401;48.188;11.566;2023-02-28T17:06:03;30.17;;;14.45;;
64110;SDS011;50401;48.188;11.566;2023-02-28T17:08:29;30.88;;;13.60;;
64110;SDS011;50401;48.188;11.566;2023-02-28T17:10:56;27.80;;;13.77;;
64110;SDS011;50401;48.188;11.566;2023-02-28T17:13:23;26.17;;;14.27;;
64110;SDS011;50401;48.188;11.566;2023-02-28T17:15:48;31.10;;;13.95;;
64110;SDS011;50401;48.188;11.566;2023-02-28T17:18:15;32.70;;;14.80;;
64110;SDS011;50401;48.188;11.566;2023-02-28T17:20:44;30.67;;;14.23;;